sensor_id;sensor_type;location;lat;lon;timestamp;temperature;humidity
13742;DHT22;8461;52.356;10.704;2022-08-03T00:01:27;20.00;99.90
13742;DHT22;8461;52.356;10.704;2022-08-03T00:03:52;20.00;99.90
13742;DHT22;8461;52.356;10.704;2022-08-03T00:06:18;19.90;99.90
13742;DHT22;8461;52.356;10.704;2022-08-03T00:08:43;19.90;99.90
13742;DHT22;8461;52.356;10.704;2022-08-03T00:11:09;19.90;99.90
13742;DHT22;8461;52.356;10.704;2022-08-03T00:13:34;19.80;99.90
13742;DHT22;8461;52.356;10.704;2022-08-03T00:16:00;19.80;99.90
13742;DHT22;8461;52.356;10.704;2022-08-03T00:18:26;19.80;99.90
13742;DHT22;8461;52.356;10.704;2022-08-03T00:20:51;19.80;99.90
13742;DHT22;8461;52.356;10.704;2022-08-03T00:23:17;19.80;99.90
13742;DHT22;8461;52.356;10.704;2022-08-03T00:25:42;19.80;99.90
13742;DHT22;8461;52.356;10.704;2022-08-03T00:28:08;19.70;99.90
13742;DHT22;8461;52.356;10.704;2022-08-03T00:30:34;19.60;99.90
13742;DHT22;8461;52.356;10.704;2022-08-03T00:33:00;19.60;99.90
13742;DHT22;8461;52.356;10.704;2022-08-03T00:35:27;19.50;99.90
13742;DHT22;8461;52.356;10.704;2022-08-03T00:37:53;19.40;99.90
13742;DHT22;8461;52.356;10.704;2022-08-03T00:40:20;19.40;99.90
13742;DHT22;8461;52.356;10.704;2022-08-03T00:45:13;19.20;99.90
13742;DHT22;8461;52.356;10.704;2022-08-03T00:47:38;19.20;99.90
13742;DHT22;8461;52.356;10.704;2022-08-03T00:50:04;19.10;99.90
13742;DHT22;8461;52.356;10.704;2022-08-03T00:52:30;19.00;99.90
13742;DHT22;8461;52.356;10.704;2022-08-03T00:54:56;18.90;99.90
13742;DHT22;8461;52.356;10.704;2022-08-03T00:57:21;18.80;99.90
13742;DHT22;8461;52.356;10.704;2022-08-03T00:59:47;18.70;99.90
13742;DHT22;8461;52.356;10.704;2022-08-03T01:02:12;18.60;99.90
13742;DHT22;8461;52.356;10.704;2022-08-03T01:04:38;18.50;99.90
13742;DHT22;8461;52.356;10.704;2022-08-03T01:07:11;18.40;99.90
13742;DHT22;8461;52.356;10.704;2022-08-03T01:09:51;18.40;99.90
13742;DHT22;8461;52.356;10.704;2022-08-03T01:12:34;18.30;99.90
13742;DHT22;8461;52.356;10.704;2022-08-03T01:15:26;18.20;99.90
13742;DHT22;8461;52.356;10.704;2022-08-03T01:18:05;18.20;99.90
13742;DHT22;8461;52.356;10.704;2022-08-03T01:20:33;18.10;99.90
13742;DHT22;8461;52.356;10.704;2022-08-03T01:23:26;18.00;99.90
13742;DHT22;8461;52.356;10.704;2022-08-03T01:26:22;18.00;99.90
13742;DHT22;8461;52.356;10.704;2022-08-03T01:31:58;17.90;99.90
13742;DHT22;8461;52.356;10.704;2022-08-03T01:34:28;17.80;99.90
13742;DHT22;8461;52.356;10.704;2022-08-03T01:36:56;17.80;99.90
13742;DHT22;8461;52.356;10.704;2022-08-03T01:39:24;17.80;99.90
13742;DHT22;8461;52.356;10.704;2022-08-03T01:41:55;17.70;99.90
13742;DHT22;8461;52.356;10.704;2022-08-03T01:44:26;17.70;99.90
13742;DHT22;8461;52.356;10.704;2022-08-03T01:46:57;17.70;99.90
13742;DHT22;8461;52.356;10.704;2022-08-03T01:49:24;17.70;99.90
13742;DHT22;8461;52.356;10.704;2022-08-03T01:51:51;17.60;99.90
13742;DHT22;8461;52.356;10.704;2022-08-03T01:54:19;17.50;99.90
13742;DHT22;8461;52.356;10.704;2022-08-03T01:56:47;17.50;99.90
13742;DHT22;8461;52.356;10.704;2022-08-03T01:59:16;17.40;99.90
13742;DHT22;8461;52.356;10.704;2022-08-03T02:01:44;17.30;99.90
13742;DHT22;8461;52.356;10.704;2022-08-03T02:04:13;17.30;99.90
13742;DHT22;8461;52.356;10.704;2022-08-03T02:06:42;17.20;99.90
13742;DHT22;8461;52.356;10.704;2022-08-03T02:09:14;17.20;99.90
13742;DHT22;8461;52.356;10.704;2022-08-03T02:11:41;17.20;99.90
13742;DHT22;8461;52.356;10.704;2022-08-03T02:14:08;17.10;99.90
13742;DHT22;8461;52.356;10.704;2022-08-03T02:16:35;17.10;99.90
13742;DHT22;8461;52.356;10.704;2022-08-03T02:19:04;17.10;99.90
13742;DHT22;8461;52.356;10.704;2022-08-03T02:21:34;17.10;99.90
13742;DHT22;8461;52.356;10.704;2022-08-03T02:24:00;17.00;99.90
13742;DHT22;8461;52.356;10.704;2022-08-03T02:26:28;17.00;99.90
13742;DHT22;8461;52.356;10.704;2022-08-03T02:28:58;16.90;99.90
13742;DHT22;8461;52.356;10.704;2022-08-03T02:31:28;16.90;99.90
13742;DHT22;8461;52.356;10.704;2022-08-03T02:34:08;16.80;99.90
13742;DHT22;8461;52.356;10.704;2022-08-03T02:36:36;16.90;99.90
13742;DHT22;8461;52.356;10.704;2022-08-03T02:39:03;16.80;99.90
13742;DHT22;8461;52.356;10.704;2022-08-03T02:41:36;16.80;99.90
13742;DHT22;8461;52.356;10.704;2022-08-03T02:44:06;16.80;99.90
13742;DHT22;8461;52.356;10.704;2022-08-03T02:46:36;16.80;99.90
13742;DHT22;8461;52.356;10.704;2022-08-03T02:49:04;16.80;99.90
13742;DHT22;8461;52.356;10.704;2022-08-03T02:51:32;16.70;99.90
13742;DHT22;8461;52.356;10.704;2022-08-03T02:53:59;16.70;99.90
13742;DHT22;8461;52.356;10.704;2022-08-03T02:56:27;16.60;99.90
13742;DHT22;8461;52.356;10.704;2022-08-03T02:58:53;16.60;99.90
13742;DHT22;8461;52.356;10.704;2022-08-03T03:01:21;16.60;99.90
13742;DHT22;8461;52.356;10.704;2022-08-03T03:03:50;16.50;99.90
13742;DHT22;8461;52.356;10.704;2022-08-03T03:06:17;16.50;99.90
13742;DHT22;8461;52.356;10.704;2022-08-03T03:08:44;16.50;99.90
13742;DHT22;8461;52.356;10.704;2022-08-03T03:11:12;16.50;99.90
13742;DHT22;8461;52.356;10.704;2022-08-03T03:13:38;16.50;99.90
13742;DHT22;8461;52.356;10.704;2022-08-03T03:16:05;16.40;99.90
13742;DHT22;8461;52.356;10.704;2022-08-03T03:18:32;16.40;99.90
13742;DHT22;8461;52.356;10.704;2022-08-03T03:21:00;16.40;99.90
13742;DHT22;8461;52.356;10.704;2022-08-03T03:23:27;16.40;99.90
13742;DHT22;8461;52.356;10.704;2022-08-03T03:25:54;16.30;99.90
13742;DHT22;8461;52.356;10.704;2022-08-03T03:28:22;16.30;99.90
13742;DHT22;8461;52.356;10.704;2022-08-03T03:30:48;16.20;99.90
13742;DHT22;8461;52.356;10.704;2022-08-03T03:33:14;16.20;99.90
13742;DHT22;8461;52.356;10.704;2022-08-03T03:35:40;16.20;99.90
13742;DHT22;8461;52.356;10.704;2022-08-03T03:38:07;16.10;99.90
13742;DHT22;8461;52.356;10.704;2022-08-03T03:40:39;16.10;99.90
13742;DHT22;8461;52.356;10.704;2022-08-03T03:43:09;16.10;99.90
13742;DHT22;8461;52.356;10.704;2022-08-03T03:45:36;16.10;99.90
13742;DHT22;8461;52.356;10.704;2022-08-03T03:48:03;16.00;99.90
13742;DHT22;8461;52.356;10.704;2022-08-03T03:50:30;16.00;99.90
13742;DHT22;8461;52.356;10.704;2022-08-03T03:52:56;16.00;99.90
13742;DHT22;8461;52.356;10.704;2022-08-03T03:55:22;16.00;99.90
13742;DHT22;8461;52.356;10.704;2022-08-03T03:57:47;16.00;99.90
13742;DHT22;8461;52.356;10.704;2022-08-03T04:00:14;16.00;99.90
13742;DHT22;8461;52.356;10.704;2022-08-03T04:02:41;16.00;99.90
13742;DHT22;8461;52.356;10.704;2022-08-03T04:05:07;15.90;99.90
13742;DHT22;8461;52.356;10.704;2022-08-03T04:10:46;15.90;99.90
13742;DHT22;8461;52.356;10.704;2022-08-03T04:13:34;15.90;99.90
13742;DHT22;8461;52.356;10.704;2022-08-03T04:16:02;15.90;99.90
13742;DHT22;8461;52.356;10.704;2022-08-03T04:18:30;16.00;99.90
13742;DHT22;8461;52.356;10.704;2022-08-03T04:21:00;16.00;99.90
13742;DHT22;8461;52.356;10.704;2022-08-03T04:23:30;15.90;99.90
13742;DHT22;8461;52.356;10.704;2022-08-03T04:25:56;15.90;99.90
13742;DHT22;8461;52.356;10.704;2022-08-03T04:28:23;16.00;99.90
13742;DHT22;8461;52.356;10.704;2022-08-03T04:30:51;16.00;99.90
13742;DHT22;8461;52.356;10.704;2022-08-03T04:33:18;16.00;99.90
13742;DHT22;8461;52.356;10.704;2022-08-03T04:35:45;16.00;99.90
13742;DHT22;8461;52.356;10.704;2022-08-03T04:38:13;16.10;99.90
13742;DHT22;8461;52.356;10.704;2022-08-03T04:40:41;16.20;99.90
13742;DHT22;8461;52.356;10.704;2022-08-03T04:43:09;16.30;99.90
13742;DHT22;8461;52.356;10.704;2022-08-03T04:45:36;16.40;99.90
13742;DHT22;8461;52.356;10.704;2022-08-03T04:48:03;16.50;99.90
13742;DHT22;8461;52.356;10.704;2022-08-03T04:50:29;16.60;99.90
13742;DHT22;8461;52.356;10.704;2022-08-03T04:52:55;16.70;99.90
13742;DHT22;8461;52.356;10.704;2022-08-03T04:55:28;16.90;99.90
13742;DHT22;8461;52.356;10.704;2022-08-03T04:57:53;17.00;99.90
13742;DHT22;8461;52.356;10.704;2022-08-03T05:00:19;17.10;99.90
13742;DHT22;8461;52.356;10.704;2022-08-03T05:02:45;17.20;99.90
13742;DHT22;8461;52.356;10.704;2022-08-03T05:05:11;17.40;99.90
13742;DHT22;8461;52.356;10.704;2022-08-03T05:07:36;17.50;99.90
13742;DHT22;8461;52.356;10.704;2022-08-03T05:10:06;17.60;99.90
13742;DHT22;8461;52.356;10.704;2022-08-03T05:12:32;17.70;99.90
13742;DHT22;8461;52.356;10.704;2022-08-03T05:14:58;17.90;99.90
13742;DHT22;8461;52.356;10.704;2022-08-03T05:17:24;18.00;99.90
13742;DHT22;8461;52.356;10.704;2022-08-03T05:19:49;18.10;99.90
13742;DHT22;8461;52.356;10.704;2022-08-03T05:22:15;18.20;99.90
13742;DHT22;8461;52.356;10.704;2022-08-03T05:24:40;18.30;99.90
13742;DHT22;8461;52.356;10.704;2022-08-03T05:27:06;18.40;99.90
13742;DHT22;8461;52.356;10.704;2022-08-03T05:29:31;18.50;99.90
13742;DHT22;8461;52.356;10.704;2022-08-03T05:31:57;18.60;99.90
13742;DHT22;8461;52.356;10.704;2022-08-03T05:34:22;18.80;99.90
13742;DHT22;8461;52.356;10.704;2022-08-03T05:36:48;18.90;99.90
13742;DHT22;8461;52.356;10.704;2022-08-03T05:39:13;19.00;99.90
13742;DHT22;8461;52.356;10.704;2022-08-03T05:41:39;19.20;99.90
13742;DHT22;8461;52.356;10.704;2022-08-03T05:44:05;19.20;99.90
13742;DHT22;8461;52.356;10.704;2022-08-03T05:46:30;19.30;99.90
13742;DHT22;8461;52.356;10.704;2022-08-03T05:48:56;19.40;99.90
13742;DHT22;8461;52.356;10.704;2022-08-03T05:51:22;19.50;99.90
13742;DHT22;8461;52.356;10.704;2022-08-03T05:53:47;19.60;99.90
13742;DHT22;8461;52.356;10.704;2022-08-03T05:56:13;19.70;99.90
13742;DHT22;8461;52.356;10.704;2022-08-03T05:58:38;19.80;99.90
13742;DHT22;8461;52.356;10.704;2022-08-03T06:01:04;20.00;99.90
13742;DHT22;8461;52.356;10.704;2022-08-03T06:03:29;20.10;99.90
13742;DHT22;8461;52.356;10.704;2022-08-03T06:05:55;20.20;99.90
13742;DHT22;8461;52.356;10.704;2022-08-03T06:08:21;20.40;99.90
13742;DHT22;8461;52.356;10.704;2022-08-03T06:10:48;20.50;99.90
13742;DHT22;8461;52.356;10.704;2022-08-03T06:13:13;20.60;99.90
13742;DHT22;8461;52.356;10.704;2022-08-03T06:15:39;20.70;99.90
13742;DHT22;8461;52.356;10.704;2022-08-03T06:18:04;20.70;99.90
13742;DHT22;8461;52.356;10.704;2022-08-03T06:20:30;20.80;99.90
13742;DHT22;8461;52.356;10.704;2022-08-03T06:22:55;21.00;99.90
13742;DHT22;8461;52.356;10.704;2022-08-03T06:25:21;21.20;99.90
13742;DHT22;8461;52.356;10.704;2022-08-03T06:27:47;21.30;99.90
13742;DHT22;8461;52.356;10.704;2022-08-03T06:30:12;21.50;99.90
13742;DHT22;8461;52.356;10.704;2022-08-03T06:32:41;21.50;99.90
13742;DHT22;8461;52.356;10.704;2022-08-03T06:35:07;21.50;99.90
13742;DHT22;8461;52.356;10.704;2022-08-03T06:37:43;21.50;99.90
13742;DHT22;8461;52.356;10.704;2022-08-03T06:40:14;21.60;99.90
13742;DHT22;8461;52.356;10.704;2022-08-03T06:42:40;21.60;99.90
13742;DHT22;8461;52.356;10.704;2022-08-03T06:45:07;21.70;99.90
13742;DHT22;8461;52.356;10.704;2022-08-03T06:47:37;21.70;99.90
13742;DHT22;8461;52.356;10.704;2022-08-03T06:50:04;21.90;99.90
13742;DHT22;8461;52.356;10.704;2022-08-03T06:52:30;22.00;99.90
13742;DHT22;8461;52.356;10.704;2022-08-03T06:54:56;22.00;99.90
13742;DHT22;8461;52.356;10.704;2022-08-03T06:57:22;22.10;99.90
13742;DHT22;8461;52.356;10.704;2022-08-03T06:59:48;22.10;99.90
13742;DHT22;8461;52.356;10.704;2022-08-03T07:02:14;22.20;99.90
13742;DHT22;8461;52.356;10.704;2022-08-03T07:04:39;22.50;99.90
13742;DHT22;8461;52.356;10.704;2022-08-03T07:07:05;22.60;99.90
13742;DHT22;8461;52.356;10.704;2022-08-03T07:09:30;22.70;99.90
13742;DHT22;8461;52.356;10.704;2022-08-03T07:11:56;22.80;99.90
13742;DHT22;8461;52.356;10.704;2022-08-03T07:14:22;23.00;99.90
13742;DHT22;8461;52.356;10.704;2022-08-03T07:16:47;23.20;99.90
13742;DHT22;8461;52.356;10.704;2022-08-03T07:19:13;23.30;99.90
13742;DHT22;8461;52.356;10.704;2022-08-03T07:21:38;23.50;99.90
13742;DHT22;8461;52.356;10.704;2022-08-03T07:24:04;23.70;99.90
13742;DHT22;8461;52.356;10.704;2022-08-03T07:26:30;23.80;99.90
13742;DHT22;8461;52.356;10.704;2022-08-03T07:28:55;24.00;99.90
13742;DHT22;8461;52.356;10.704;2022-08-03T07:31:21;24.20;99.90
13742;DHT22;8461;52.356;10.704;2022-08-03T07:33:46;24.30;99.90
13742;DHT22;8461;52.356;10.704;2022-08-03T07:36:12;24.60;99.90
13742;DHT22;8461;52.356;10.704;2022-08-03T07:38:38;24.70;99.90
13742;DHT22;8461;52.356;10.704;2022-08-03T07:41:03;24.80;99.90
13742;DHT22;8461;52.356;10.704;2022-08-03T07:43:29;24.70;99.90
13742;DHT22;8461;52.356;10.704;2022-08-03T07:45:54;24.70;99.90
13742;DHT22;8461;52.356;10.704;2022-08-03T07:48:20;24.80;99.90
13742;DHT22;8461;52.356;10.704;2022-08-03T07:50:45;24.90;99.90
13742;DHT22;8461;52.356;10.704;2022-08-03T07:53:11;24.90;99.90
13742;DHT22;8461;52.356;10.704;2022-08-03T07:55:37;25.00;99.90
13742;DHT22;8461;52.356;10.704;2022-08-03T07:58:07;25.30;99.90
13742;DHT22;8461;52.356;10.704;2022-08-03T08:00:34;25.50;99.90
13742;DHT22;8461;52.356;10.704;2022-08-03T08:03:00;25.50;99.90
13742;DHT22;8461;52.356;10.704;2022-08-03T08:05:26;25.50;99.90
13742;DHT22;8461;52.356;10.704;2022-08-03T08:07:52;25.70;99.90
13742;DHT22;8461;52.356;10.704;2022-08-03T08:10:18;25.70;99.90
13742;DHT22;8461;52.356;10.704;2022-08-03T08:12:44;25.70;99.90
13742;DHT22;8461;52.356;10.704;2022-08-03T08:15:09;25.90;99.90
13742;DHT22;8461;52.356;10.704;2022-08-03T08:17:52;25.90;99.90
13742;DHT22;8461;52.356;10.704;2022-08-03T08:20:24;25.90;99.90
13742;DHT22;8461;52.356;10.704;2022-08-03T08:22:49;25.90;99.90
13742;DHT22;8461;52.356;10.704;2022-08-03T08:25:15;26.10;99.90
13742;DHT22;8461;52.356;10.704;2022-08-03T08:27:46;26.20;99.90
13742;DHT22;8461;52.356;10.704;2022-08-03T08:30:13;26.40;99.90
13742;DHT22;8461;52.356;10.704;2022-08-03T08:32:39;26.50;99.90
13742;DHT22;8461;52.356;10.704;2022-08-03T08:35:06;26.60;99.90
13742;DHT22;8461;52.356;10.704;2022-08-03T08:37:32;26.60;99.90
13742;DHT22;8461;52.356;10.704;2022-08-03T08:39:58;26.50;99.90
13742;DHT22;8461;52.356;10.704;2022-08-03T08:42:24;26.60;99.90
13742;DHT22;8461;52.356;10.704;2022-08-03T08:44:50;26.60;99.90
13742;DHT22;8461;52.356;10.704;2022-08-03T08:47:18;26.60;99.90
13742;DHT22;8461;52.356;10.704;2022-08-03T08:49:45;26.90;99.90
13742;DHT22;8461;52.356;10.704;2022-08-03T08:52:12;27.30;99.90
13742;DHT22;8461;52.356;10.704;2022-08-03T08:54:41;27.50;99.90
13742;DHT22;8461;52.356;10.704;2022-08-03T08:57:08;27.50;99.90
13742;DHT22;8461;52.356;10.704;2022-08-03T08:59:35;27.70;99.90
13742;DHT22;8461;52.356;10.704;2022-08-03T09:02:01;27.60;99.90
13742;DHT22;8461;52.356;10.704;2022-08-03T09:04:30;27.50;99.90
13742;DHT22;8461;52.356;10.704;2022-08-03T09:06:56;27.50;99.90
13742;DHT22;8461;52.356;10.704;2022-08-03T09:09:22;27.40;99.90
13742;DHT22;8461;52.356;10.704;2022-08-03T09:11:48;27.60;99.90
13742;DHT22;8461;52.356;10.704;2022-08-03T09:14:14;27.90;99.90
13742;DHT22;8461;52.356;10.704;2022-08-03T09:16:55;27.80;99.90
13742;DHT22;8461;52.356;10.704;2022-08-03T09:19:23;28.00;99.80
13742;DHT22;8461;52.356;10.704;2022-08-03T09:22:10;28.10;99.70
13742;DHT22;8461;52.356;10.704;2022-08-03T09:24:37;28.20;99.90
13742;DHT22;8461;52.356;10.704;2022-08-03T09:27:10;28.20;98.50
13742;DHT22;8461;52.356;10.704;2022-08-03T09:29:37;28.30;98.20
13742;DHT22;8461;52.356;10.704;2022-08-03T09:32:03;28.20;98.80
13742;DHT22;8461;52.356;10.704;2022-08-03T09:34:29;28.10;97.80
13742;DHT22;8461;52.356;10.704;2022-08-03T09:36:55;28.30;98.80
13742;DHT22;8461;52.356;10.704;2022-08-03T09:39:24;28.20;98.30
13742;DHT22;8461;52.356;10.704;2022-08-03T09:42:05;28.20;98.20
13742;DHT22;8461;52.356;10.704;2022-08-03T09:44:39;28.20;99.20
13742;DHT22;8461;52.356;10.704;2022-08-03T09:47:07;28.40;97.80
13742;DHT22;8461;52.356;10.704;2022-08-03T09:49:34;28.30;98.30
13742;DHT22;8461;52.356;10.704;2022-08-03T09:52:10;28.30;98.60
13742;DHT22;8461;52.356;10.704;2022-08-03T09:54:36;28.60;99.00
13742;DHT22;8461;52.356;10.704;2022-08-03T09:57:02;28.70;98.40
13742;DHT22;8461;52.356;10.704;2022-08-03T09:59:30;28.70;98.00
13742;DHT22;8461;52.356;10.704;2022-08-03T10:01:57;28.60;98.10
13742;DHT22;8461;52.356;10.704;2022-08-03T10:04:23;28.80;98.20
13742;DHT22;8461;52.356;10.704;2022-08-03T10:07:08;28.90;96.90
13742;DHT22;8461;52.356;10.704;2022-08-03T10:09:35;29.00;96.70
13742;DHT22;8461;52.356;10.704;2022-08-03T10:12:09;28.90;97.50
13742;DHT22;8461;52.356;10.704;2022-08-03T10:14:37;28.90;97.90
13742;DHT22;8461;52.356;10.704;2022-08-03T10:17:03;29.00;97.10
13742;DHT22;8461;52.356;10.704;2022-08-03T10:19:29;29.10;96.60
13742;DHT22;8461;52.356;10.704;2022-08-03T10:21:57;29.30;97.20
13742;DHT22;8461;52.356;10.704;2022-08-03T10:24:27;29.30;96.20
13742;DHT22;8461;52.356;10.704;2022-08-03T10:27:02;29.10;96.90
13742;DHT22;8461;52.356;10.704;2022-08-03T10:29:28;29.30;96.30
13742;DHT22;8461;52.356;10.704;2022-08-03T10:31:58;29.30;96.10
13742;DHT22;8461;52.356;10.704;2022-08-03T10:34:30;29.50;96.70
13742;DHT22;8461;52.356;10.704;2022-08-03T10:36:58;29.50;95.90
13742;DHT22;8461;52.356;10.704;2022-08-03T10:39:28;29.50;95.70
13742;DHT22;8461;52.356;10.704;2022-08-03T10:41:54;29.40;96.50
13742;DHT22;8461;52.356;10.704;2022-08-03T10:44:25;29.50;96.10
13742;DHT22;8461;52.356;10.704;2022-08-03T10:46:55;29.60;96.10
13742;DHT22;8461;52.356;10.704;2022-08-03T10:49:21;29.50;95.80
13742;DHT22;8461;52.356;10.704;2022-08-03T10:51:47;29.70;95.70
13742;DHT22;8461;52.356;10.704;2022-08-03T10:54:43;29.60;94.80
13742;DHT22;8461;52.356;10.704;2022-08-03T10:57:46;29.70;96.30
13742;DHT22;8461;52.356;10.704;2022-08-03T11:00:14;29.80;95.20
13742;DHT22;8461;52.356;10.704;2022-08-03T11:03:03;29.80;95.10
13742;DHT22;8461;52.356;10.704;2022-08-03T11:05:38;29.70;95.10
13742;DHT22;8461;52.356;10.704;2022-08-03T11:10:50;29.90;94.40
13742;DHT22;8461;52.356;10.704;2022-08-03T11:13:18;30.00;94.40
13742;DHT22;8461;52.356;10.704;2022-08-03T11:15:47;30.10;93.90
13742;DHT22;8461;52.356;10.704;2022-08-03T11:18:14;30.20;93.30
13742;DHT22;8461;52.356;10.704;2022-08-03T11:23:13;30.40;93.40
13742;DHT22;8461;52.356;10.704;2022-08-03T11:26:16;30.40;93.70
13742;DHT22;8461;52.356;10.704;2022-08-03T11:28:46;30.40;93.80
13742;DHT22;8461;52.356;10.704;2022-08-03T11:34:05;30.40;93.70
13742;DHT22;8461;52.356;10.704;2022-08-03T11:39:41;30.50;92.50
13742;DHT22;8461;52.356;10.704;2022-08-03T11:44:56;30.70;93.50
13742;DHT22;8461;52.356;10.704;2022-08-03T11:47:24;30.80;91.70
13742;DHT22;8461;52.356;10.704;2022-08-03T11:49:54;30.80;92.60
13742;DHT22;8461;52.356;10.704;2022-08-03T11:52:21;30.90;92.60
13742;DHT22;8461;52.356;10.704;2022-08-03T11:54:50;30.90;93.50
13742;DHT22;8461;52.356;10.704;2022-08-03T11:57:30;31.00;92.00
13742;DHT22;8461;52.356;10.704;2022-08-03T11:59:56;31.10;90.90
13742;DHT22;8461;52.356;10.704;2022-08-03T12:02:21;31.00;91.20
13742;DHT22;8461;52.356;10.704;2022-08-03T12:04:51;31.10;92.40
13742;DHT22;8461;52.356;10.704;2022-08-03T12:07:17;31.10;91.80
13742;DHT22;8461;52.356;10.704;2022-08-03T12:10:08;31.20;90.00
13742;DHT22;8461;52.356;10.704;2022-08-03T12:12:34;31.10;90.40
13742;DHT22;8461;52.356;10.704;2022-08-03T12:15:00;31.30;90.10
13742;DHT22;8461;52.356;10.704;2022-08-03T12:17:39;31.40;91.20
13742;DHT22;8461;52.356;10.704;2022-08-03T12:20:08;31.50;90.90
13742;DHT22;8461;52.356;10.704;2022-08-03T12:22:38;31.70;90.80
13742;DHT22;8461;52.356;10.704;2022-08-03T12:25:05;31.70;90.20
13742;DHT22;8461;52.356;10.704;2022-08-03T12:27:31;31.50;90.90
13742;DHT22;8461;52.356;10.704;2022-08-03T12:29:58;31.50;91.10
13742;DHT22;8461;52.356;10.704;2022-08-03T12:32:26;31.60;91.10
13742;DHT22;8461;52.356;10.704;2022-08-03T12:34:52;31.60;90.40
13742;DHT22;8461;52.356;10.704;2022-08-03T12:37:21;31.70;90.90
13742;DHT22;8461;52.356;10.704;2022-08-03T12:39:55;31.80;90.50
13742;DHT22;8461;52.356;10.704;2022-08-03T12:42:21;31.80;90.20
13742;DHT22;8461;52.356;10.704;2022-08-03T12:44:54;31.90;87.50
13742;DHT22;8461;52.356;10.704;2022-08-03T12:47:19;32.00;86.20
13742;DHT22;8461;52.356;10.704;2022-08-03T12:49:46;32.00;84.80
13742;DHT22;8461;52.356;10.704;2022-08-03T12:52:12;32.10;85.10
13742;DHT22;8461;52.356;10.704;2022-08-03T12:54:38;32.10;87.40
13742;DHT22;8461;52.356;10.704;2022-08-03T12:57:04;32.30;86.80
13742;DHT22;8461;52.356;10.704;2022-08-03T12:59:37;32.40;88.20
13742;DHT22;8461;52.356;10.704;2022-08-03T13:02:18;32.40;84.00
13742;DHT22;8461;52.356;10.704;2022-08-03T13:04:45;32.30;84.70
13742;DHT22;8461;52.356;10.704;2022-08-03T13:07:11;32.40;86.30
13742;DHT22;8461;52.356;10.704;2022-08-03T13:09:48;32.60;87.30
13742;DHT22;8461;52.356;10.704;2022-08-03T13:14:43;32.70;84.50
13742;DHT22;8461;52.356;10.704;2022-08-03T13:17:09;32.50;85.00
13742;DHT22;8461;52.356;10.704;2022-08-03T13:19:36;32.30;85.00
13742;DHT22;8461;52.356;10.704;2022-08-03T13:22:22;32.00;84.50
13742;DHT22;8461;52.356;10.704;2022-08-03T13:24:51;31.80;85.70
13742;DHT22;8461;52.356;10.704;2022-08-03T13:27:16;31.70;86.40
13742;DHT22;8461;52.356;10.704;2022-08-03T13:29:42;31.50;86.30
13742;DHT22;8461;52.356;10.704;2022-08-03T13:32:09;31.40;87.80
13742;DHT22;8461;52.356;10.704;2022-08-03T13:34:34;31.50;88.50
13742;DHT22;8461;52.356;10.704;2022-08-03T13:37:00;31.50;87.50
13742;DHT22;8461;52.356;10.704;2022-08-03T13:39:26;31.70;87.10
13742;DHT22;8461;52.356;10.704;2022-08-03T13:41:51;31.80;87.50
13742;DHT22;8461;52.356;10.704;2022-08-03T13:44:17;31.90;85.90
13742;DHT22;8461;52.356;10.704;2022-08-03T13:46:44;32.00;87.80
13742;DHT22;8461;52.356;10.704;2022-08-03T13:49:10;32.00;85.90
13742;DHT22;8461;52.356;10.704;2022-08-03T13:51:35;31.90;83.40
13742;DHT22;8461;52.356;10.704;2022-08-03T13:54:01;32.00;85.20
13742;DHT22;8461;52.356;10.704;2022-08-03T13:56:27;32.00;84.10
13742;DHT22;8461;52.356;10.704;2022-08-03T13:58:53;32.10;85.60
13742;DHT22;8461;52.356;10.704;2022-08-03T14:01:19;32.10;84.20
13742;DHT22;8461;52.356;10.704;2022-08-03T14:03:45;32.10;82.70
13742;DHT22;8461;52.356;10.704;2022-08-03T14:06:13;32.00;84.30
13742;DHT22;8461;52.356;10.704;2022-08-03T14:08:39;32.10;83.90
13742;DHT22;8461;52.356;10.704;2022-08-03T14:11:04;32.30;84.40
13742;DHT22;8461;52.356;10.704;2022-08-03T14:13:30;32.30;84.50
13742;DHT22;8461;52.356;10.704;2022-08-03T14:15:56;32.40;83.60
13742;DHT22;8461;52.356;10.704;2022-08-03T14:18:21;32.30;84.10
13742;DHT22;8461;52.356;10.704;2022-08-03T14:20:47;32.40;83.80
13742;DHT22;8461;52.356;10.704;2022-08-03T14:23:13;32.30;83.80
13742;DHT22;8461;52.356;10.704;2022-08-03T14:25:39;32.20;83.80
13742;DHT22;8461;52.356;10.704;2022-08-03T14:28:06;32.00;83.30
13742;DHT22;8461;52.356;10.704;2022-08-03T14:30:32;32.00;83.90
13742;DHT22;8461;52.356;10.704;2022-08-03T14:32:58;32.10;85.30
13742;DHT22;8461;52.356;10.704;2022-08-03T14:35:24;32.00;82.30
13742;DHT22;8461;52.356;10.704;2022-08-03T14:37:49;31.90;83.10
13742;DHT22;8461;52.356;10.704;2022-08-03T14:40:16;31.70;82.20
13742;DHT22;8461;52.356;10.704;2022-08-03T14:42:42;31.60;83.60
13742;DHT22;8461;52.356;10.704;2022-08-03T14:45:08;31.50;81.50
13742;DHT22;8461;52.356;10.704;2022-08-03T14:47:33;31.50;85.10
13742;DHT22;8461;52.356;10.704;2022-08-03T14:49:59;31.50;85.60
13742;DHT22;8461;52.356;10.704;2022-08-03T14:52:24;31.50;84.50
13742;DHT22;8461;52.356;10.704;2022-08-03T14:54:50;31.60;83.90
13742;DHT22;8461;52.356;10.704;2022-08-03T14:57:16;31.50;83.00
13742;DHT22;8461;52.356;10.704;2022-08-03T14:59:41;31.60;85.50
13742;DHT22;8461;52.356;10.704;2022-08-03T15:02:07;31.60;81.60
13742;DHT22;8461;52.356;10.704;2022-08-03T15:04:32;31.60;83.70
13742;DHT22;8461;52.356;10.704;2022-08-03T15:06:58;31.60;83.00
13742;DHT22;8461;52.356;10.704;2022-08-03T15:09:23;31.60;82.10
13742;DHT22;8461;52.356;10.704;2022-08-03T15:11:49;31.60;84.10
13742;DHT22;8461;52.356;10.704;2022-08-03T15:14:15;31.70;85.30
13742;DHT22;8461;52.356;10.704;2022-08-03T15:16:40;31.50;84.40
13742;DHT22;8461;52.356;10.704;2022-08-03T15:19:06;31.50;84.60
13742;DHT22;8461;52.356;10.704;2022-08-03T15:21:32;31.40;85.40
13742;DHT22;8461;52.356;10.704;2022-08-03T15:23:57;31.40;85.90
13742;DHT22;8461;52.356;10.704;2022-08-03T15:26:23;31.30;86.80
13742;DHT22;8461;52.356;10.704;2022-08-03T15:28:48;31.30;83.40
13742;DHT22;8461;52.356;10.704;2022-08-03T15:31:14;31.20;84.00
13742;DHT22;8461;52.356;10.704;2022-08-03T15:33:39;31.20;84.70
13742;DHT22;8461;52.356;10.704;2022-08-03T15:36:05;31.10;85.60
13742;DHT22;8461;52.356;10.704;2022-08-03T15:38:31;31.00;86.80
13742;DHT22;8461;52.356;10.704;2022-08-03T15:40:56;31.00;87.10
13742;DHT22;8461;52.356;10.704;2022-08-03T15:43:23;31.00;84.50
13742;DHT22;8461;52.356;10.704;2022-08-03T15:45:49;31.00;83.50
13742;DHT22;8461;52.356;10.704;2022-08-03T15:48:14;31.00;86.60
13742;DHT22;8461;52.356;10.704;2022-08-03T15:50:40;31.00;87.70
13742;DHT22;8461;52.356;10.704;2022-08-03T15:53:05;31.00;87.10
13742;DHT22;8461;52.356;10.704;2022-08-03T15:55:31;30.90;87.20
13742;DHT22;8461;52.356;10.704;2022-08-03T15:57:57;30.80;87.10
13742;DHT22;8461;52.356;10.704;2022-08-03T16:00:22;30.80;87.60